Latest Coastal Weather Observations for Low Rocky Point

IDT60701

Issued at 10:12 pm EST Sunday 25 September 2016 (issued every 10 minutes, with the page automatically refreshed every 10 minutes)

About coastal observations | Map of coastal stations | Coastal observations for TAS | Marine services | Other Formats
Station Details ID: 097080 Name: LOW ROCKY POINT Lat: -42.98 Lon: 145.50 Height: 34.0 m
Data from the previous 72 hours. | See also: Recent months at Low Rocky Point
Date/Time
EST
Temp
°C
Wind Pressure Rain since
9am
mm
Weather Cloud Vis
km
Sea
Height
m
Swell
Dir  Spd
kts
Gust
kts
hPa Trend Height
m
Period
s
Dir
25/10:00pm 10.3 WNW 17 21 1010.9 - 0.4 - - - - - - -
25/09:30pm 10.3 WNW 17 21 1010.7 - 0.4 - - - - - - -
25/09:00pm 10.3 WNW 16 20 1010.3 - 0.4 - - - - - - -
25/08:30pm 10.5 WNW 16 19 1010.3 - 0.4 - - - - - - -
25/08:00pm 10.3 W 13 17 1010.0 - 0.4 - - - - - - -
25/07:30pm 10.5 WNW 17 23 1009.8 - 0.4 - - - - - - -
25/07:00pm 10.3 WNW 17 20 1009.4 - 0.4 - - - - - - -
25/06:30pm 10.4 WNW 17 19 1009.0 - 0.4 - - - - - - -
25/06:00pm 10.4 WNW 19 22 1008.7 - 0.4 - - - - - - -
25/05:30pm 10.9 WNW 17 21 1008.5 - 0.4 - - - - - - -
25/05:00pm 11.3 WNW 19 23 1008.2 - 0.4 - - - - - - -
25/04:30pm 11.8 WNW 19 23 1008.1 - 0.4 - - - - - - -
25/04:00pm 12.0 WNW 19 22 1007.8 - 0.4 - - - - - - -
25/03:30pm 11.8 WNW 19 23 1007.7 - 0.4 - - - - - - -
25/03:00pm 12.0 WNW 19 25 1007.4 - 0.4 - - - - - - -
25/02:30pm 12.7 WNW 19 23 1007.3 - 0.4 - - - - - - -
25/02:00pm 12.5 WNW 17 21 1007.0 - 0.4 - - - - - - -
25/01:30pm 12.3 WNW 18 23 1006.9 - 0.4 - - - - - - -
25/01:00pm 12.0 WNW 19 23 1006.8 - 0.4 - - - - - - -
25/12:30pm 11.4 NW 17 25 1006.8 - 0.4 - - - - - - -
25/12:00pm 10.6 WNW 13 16 1006.6 - 0.4 Recent precip. - - - - - -
25/11:52am 8.7 WNW 16 26 1006.7 - 0.4 - - - - - - -
25/11:30am 12.5 WNW 17 23 1006.5 - 0.0 - - - - - - -
25/11:00am 12.0 WNW 18 21 1006.2 - 0.0 - - - - - - -
25/10:30am 11.8 WNW 17 21 1006.0 - 0.0 - - - - - - -
25/10:00am 12.2 WNW 16 19 1005.7 - 0.0 - - - - - - -
25/09:30am 11.9 W 13 16 1005.6 - 0.0 - - - - - - -
25/09:00am 10.9 W 17 22 1005.2 - 5.8 - - - - - - -
25/08:30am 10.8 W 20 25 1004.8 - 5.8 - - - - - - -
25/08:00am 10.2 WNW 19 26 1004.5 - 5.8 - - - - - - -
25/07:59am 10.2 WNW 20 30 1004.5 - 5.8 - - - - - - -
25/07:30am 10.4 W 20 24 1004.0 - 5.8 - - - - - - -
25/07:00am 10.2 W 20 25 1003.6 - 5.8 - - - - - - -
25/06:30am 10.1 W 19 24 1003.3 - 5.8 - - - - - - -
25/06:00am 10.1 W 19 23 1002.9 - 5.8 Recent precip. - - - - - -
25/05:30am 10.2 W 19 24 1002.5 - 5.6 - - - - - - -
25/05:00am 10.5 W 22 27 1002.1 - 5.6 - - - - - - -
25/04:30am 10.5 W 24 28 1001.6 - 5.6 - - - - - - -
25/04:00am 10.5 W 26 33 1000.7 - 5.6 Recent precip. - - - - - -
25/03:30am 10.2 W 27 35 999.9 - 5.6 - - - - - - -
25/03:27am 10.6 W 27 35 999.8 - 5.6 - - - - - - -
25/03:01am 11.2 NW 19 25 999.5 - 5.2 - - - - - - -
25/03:00am 11.3 NW 19 24 999.5 - 5.0 Rain - - - - - -
25/02:36am 11.3 N 14 25 999.4 - 2.6 - - - - - - -
25/02:30am 11.1 N 11 15 999.0 - 2.4 - - - - - - -
25/02:00am 11.1 N 14 20 999.5 - 2.0 Rain - - - - - -
25/01:30am 11.1 N 13 19 999.7 - 1.6 - - - - - - -
25/01:00am 10.7 NNE 11 16 1000.0 - 1.2 Rain - - - - - -
25/12:30am 10.9 N 12 16 1000.4 - 0.8 - - - - - - -
25/12:00am 10.8 N 12 15 1000.8 - 0.6 Rain - - - - - -
 
Date/Time
EST
Temp
°C
Wind Pressure Rain since
9am
mm
Weather Cloud Vis
km
Sea
Height
m
Swell
Dir  Spd
kts
Gust
kts
hPa Trend Height
m
Period
s
Dir
24/11:30pm 11.3 N 13 18 1001.0 - 0.0 - - - - - - -
24/11:00pm 13.2 N 14 19 1001.3 - 0.0 - - - - - - -
24/10:30pm 13.6 N 13 18 1001.4 - 0.0 - - - - - - -
24/10:00pm 13.0 NNE 11 19 1001.6 - 0.0 - - - - - - -
24/09:30pm 12.3 NNE 10 12 1001.9 - 0.0 - - - - - - -
24/09:00pm 12.6 NNE 11 13 1002.2 - 0.0 - - - - - - -
24/08:30pm 12.3 NNE 8 10 1002.4 - 0.0 - - - - - - -
24/08:00pm 12.1 NE 8 10 1002.5 - 0.0 - - - - - - -
24/07:30pm 11.8 ENE 8 10 1002.5 - 0.0 - - - - - - -
24/07:00pm 11.7 ENE 9 11 1002.5 - 0.0 - - - - - - -
24/06:30pm 12.2 N 7 9 1002.5 - 0.0 - - - - - - -
24/06:00pm 12.7 N 6 8 1003.0 - 0.0 - - - - - - -
24/05:30pm 13.5 NW 5 8 1003.0 - 0.0 - - - - - - -
24/05:00pm 14.4 NNW 5 10 1003.1 - 0.0 - - - - - - -
24/04:30pm 15.1 NW 9 11 1003.2 - 0.0 - - - - - - -
24/04:00pm 15.8 NW 9 11 1003.3 - 0.0 - - - - - - -
24/03:30pm 15.8 NW 11 14 1003.3 - 0.0 - - - - - - -
24/03:00pm 16.1 WNW 12 15 1003.4 - 0.0 - - - - - - -
24/02:30pm 16.6 WNW 8 10 1003.7 - 0.0 - - - - - - -
24/02:00pm 15.3 WNW 8 9 1003.7 - 0.0 - - - - - - -
24/01:30pm 16.3 W 6 7 1004.3 - 0.0 - - - - - - -
24/01:00pm 15.4 W 6 8 1004.6 - 0.0 - - - - - - -
24/12:30pm 16.0 W 8 9 1005.4 - 0.0 - - - - - - -
24/12:00pm 15.4 W 7 9 1005.6 - 0.0 - - - - - - -
24/11:30am 15.7 W 8 10 1005.8 - 0.0 - - - - - - -
24/11:00am 18.9 NW 7 11 1005.9 - 0.0 - - - - - - -
24/10:30am 17.5 NNE 8 12 1006.4 - 0.0 - - - - - - -
24/10:00am 16.7 NE 11 15 1006.9 - 0.0 - - - - - - -
24/09:30am 15.2 NE 10 15 1007.5 - 0.0 - - - - - - -
24/09:00am 14.1 NE 10 13 1008.0 - 0.0 - - - - - - -
24/08:30am 12.8 NE 8 12 1008.5 - 0.0 - - - - - - -
24/08:00am 11.0 NNE 8 10 1008.8 - 0.0 - - - - - - -
24/07:30am 10.6 N 7 10 1009.2 - 0.0 - - - - - - -
24/07:00am 10.0 N 7 9 1009.1 - 0.0 - - - - - - -
24/06:30am 10.1 NNE 9 11 1009.0 - 0.0 - - - - - - -
24/06:00am 9.5 NE 8 11 1008.8 - 0.0 - - - - - - -
24/05:30am 9.7 NNE 6 8 1009.0 - 0.0 - - - - - - -
24/05:00am 9.6 N 5 7 1009.2 - 0.0 - - - - - - -
24/04:30am 9.9 N 5 7 1009.4 - 0.0 - - - - - - -
24/04:00am 9.8 NE 9 11 1009.3 - 0.0 - - - - - - -
24/03:30am 9.2 NE 8 11 1009.6 - 0.0 - - - - - - -
24/03:00am 10.0 NE 9 10 1009.8 - 0.0 - - - - - - -
24/02:30am 9.3 NNW 5 7 1010.5 - 0.0 - - - - - - -
24/02:00am 10.1 NNE 10 12 1010.6 - 0.0 - - - - - - -
24/01:30am 10.6 NNE 7 9 1011.1 - 0.0 - - - - - - -
24/01:00am 10.5 NNE 6 8 1011.2 - 0.0 - - - - - - -
24/12:30am 10.7 NNE 7 9 1011.5 - 0.0 - - - - - - -
24/12:00am 10.4 NE 8 10 1011.6 - 0.0 - - - - - - -
 
Date/Time
EST
Temp
°C
Wind Pressure Rain since
9am
mm
Weather Cloud Vis
km
Sea
Height
m
Swell
Dir  Spd
kts
Gust
kts
hPa Trend Height
m
Period
s
Dir
23/11:30pm 10.0 NE 9 10 1011.9 - 0.0 - - - - - - -
23/11:00pm 10.0 NE 7 8 1012.1 - 0.0 - - - - - - -
23/10:30pm 10.2 NE 7 8 1012.5 - 0.0 - - - - - - -
23/10:00pm 10.4 NE 7 7 1012.7 - 0.0 - - - - - - -
23/09:30pm 10.6 ENE 6 6 1012.9 - 0.0 - - - - - - -
23/09:00pm 10.6 ENE 6 6 1013.0 - 0.0 - - - - - - -
23/08:30pm 11.5 ESE 7 8 1013.3 - 0.0 - - - - - - -
23/08:00pm 11.8 ESE 6 7 1013.3 - 0.0 - - - - - - -
23/07:30pm 11.8 SE 7 9 1013.3 - 0.0 - - - - - - -
23/07:00pm 11.7 SE 6 8 1013.3 - 0.0 - - - - - - -
23/06:30pm 11.7 SSE 7 9 1013.3 - 0.0 - - - - - - -
23/06:00pm 12.0 SSE 8 11 1013.1 - 0.0 - - - - - - -
23/05:30pm 12.9 SSE 8 10 1013.1 - 0.0 - - - - - - -
23/05:00pm 13.6 SSE 9 12 1013.0 - 0.0 - - - - - - -
23/04:30pm 13.6 SSE 10 14 1013.1 - 0.0 - - - - - - -
23/04:00pm 13.9 SSE 10 13 1013.0 - 0.0 - - - - - - -
23/03:30pm 14.3 SSE 11 13 1013.5 - 0.0 - - - - - - -
23/03:00pm 14.2 S 11 14 1013.7 - 0.0 - - - - - - -
23/02:30pm 14.5 S 11 14 1014.0 - 0.0 - - - - - - -
23/02:00pm 13.8 SSE 10 13 1014.3 - 0.0 - - - - - - -
23/01:30pm 13.9 SSE 10 13 1014.6 - 0.0 - - - - - - -
23/01:00pm 14.2 SSE 9 11 1015.0 - 0.0 - - - - - - -
23/12:30pm 12.8 SSE 9 11 1015.5 - 0.0 - - - - - - -
23/12:00pm 12.1 SSE 9 10 1015.8 - 0.0 - - - - - - -
23/11:30am 12.1 SSE 9 11 1016.0 - 0.0 - - - - - - -
23/11:00am 12.1 SSE 9 11 1016.3 - 0.0 - - - - - - -
23/10:30am 11.8 S 9 11 1016.7 - 0.0 - - - - - - -
23/10:00am 11.3 S 9 12 1017.1 - 0.0 - - - - - - -
23/09:30am 11.0 S 8 11 1017.4 - 0.0 - - - - - - -
23/09:00am 10.6 SSW 8 10 1017.5 - 0.6 - - - - - - -
23/08:30am 10.2 SSW 7 9 1017.6 - 0.6 - - - - - - -
23/08:00am 10.2 SSE 6 8 1017.6 - 0.6 Rain - - - - - -
23/07:30am 10.0 S 5 8 1017.6 - 0.4 - - - - - - -
23/07:00am 9.8 SSE 4 6 1017.6 - 0.4 Rain - - - - - -
23/06:30am 9.6 SSE 4 5 1017.6 - 0.0 - - - - - - -
23/06:00am 9.5 SSE 5 6 1017.4 - 0.0 - - - - - - -
23/05:30am 9.7 SSE 5 7 1017.2 - 0.0 - - - - - - -
23/05:00am 9.8 SSE 6 9 1017.1 - 0.0 - - - - - - -
23/04:30am 9.9 S 6 11 1017.1 - 0.0 - - - - - - -
23/04:00am 10.0 S 6 8 1017.3 - 0.0 - - - - - - -
23/03:30am 10.0 S 8 11 1017.1 - 0.0 - - - - - - -
23/03:00am 10.0 SSE 7 9 1017.0 - 0.0 - - - - - - -
23/02:30am 9.9 S 7 9 1017.2 - 0.0 - - - - - - -
23/02:00am 10.0 S 6 8 1017.6 - 0.0 - - - - - - -
23/01:30am 10.0 S 8 11 1017.9 - 0.0 - - - - - - -
23/01:00am 10.0 SSW 8 10 1018.0 - 0.0 - - - - - - -
23/12:30am 9.9 SSW 8 12 1018.0 - 0.0 - - - - - - -
23/12:00am 9.8 SSW 9 11 1018.0 - 0.0 - - - - - - -
 
Date/Time
EST
Temp
°C
Wind Pressure Rain since
9am
mm
Weather Cloud Vis
km
Sea
Height
m
Swell
Dir  Spd
kts
Gust
kts
hPa Trend Height
m
Period
s
Dir
22/11:30pm 10.1 SSW 9 12 1018.2 - 0.0 - - - - - - -
22/11:00pm 10.3 SSW 9 13 1018.2 - 0.0 - - - - - - -
22/10:30pm 10.4 SSW 10 13 1018.3 - 0.0 - - - - - - -

Other Formats:

Comma delimited format used in spreadsheet applications
http://www.bom.gov.au/fwo/IDT60701/IDT60701.95961.axf

JavaScript Object Notation format (JSON) in row-major order
http://www.bom.gov.au/fwo/IDT60701/IDT60701.95961.json